Time;durP1;ratioP1;P1;durP2;ratioP2;P2;SDS_P1;SDS_P2;PMS_P1;PMS_P2;Temp;Humidity;BMP_temperature;BMP_pressure;BME280_temperature;BME280_humidity;BME280_pressure;Samples;Min_cycle;Max_cycle;Signal;HPM_P1;HPM_P2
2021/01/19 00:01:14;;;;;;;134.35;72.53;;;-0.60;92.60;;;;;;4954625;29;20464;-71
2021/01/19 00:03:40;;;;;;;160.27;82.85;;;-0.50;92.30;;;;;;4954313;29;20036;-73
2021/01/19 00:06:06;;;;;;;200.82;95.78;;;-0.50;93.00;;;;;;4955338;29;20027;-73
2021/01/19 00:08:32;;;;;;;154.15;80.03;;;-0.50;92.50;;;;;;4955819;29;20035;-73
2021/01/19 00:10:59;;;;;;;134.93;69.28;;;-0.50;92.70;;;;;;4954372;29;20482;-73
2021/01/19 00:13:25;;;;;;;156.52;80.20;;;-0.50;92.60;;;;;;4956035;29;20106;-72
2021/01/19 00:15:51;;;;;;;187.20;90.22;;;-0.60;92.80;;;;;;4954504;29;20119;-73
2021/01/19 00:18:17;;;;;;;158.10;78.30;;;-0.60;93.00;;;;;;4955457;29;20034;-72
2021/01/19 00:20:44;;;;;;;118.32;62.33;;;-0.50;92.80;;;;;;4955461;29;20102;-72
2021/01/19 00:23:12;;;;;;;110.03;60.53;;;-0.50;93.10;;;;;;4955739;29;20487;-73
2021/01/19 00:25:42;;;;;;;136.07;71.63;;;-0.60;93.10;;;;;;4954090;29;20039;-73
2021/01/19 00:28:08;;;;;;;256.20;110.88;;;-0.60;93.00;;;;;;4954278;29;20043;-71
2021/01/19 00:30:42;;;;;;;281.67;119.05;;;-0.60;93.00;;;;;;4955318;29;20028;-71
2021/01/19 00:33:08;;;;;;;228.02;106.20;;;-0.50;92.90;;;;;;4955310;29;20468;-73
2021/01/19 00:35:35;;;;;;;162.23;79.22;;;-0.50;93.30;;;;;;4954293;29;20027;-73
2021/01/19 00:38:01;;;;;;;158.98;75.50;;;-0.50;93.00;;;;;;4955236;29;20066;-71
2021/01/19 00:40:28;;;;;;;169.07;79.28;;;-0.50;93.10;;;;;;4955539;29;20020;-72
2021/01/19 00:42:54;;;;;;;149.23;71.00;;;-0.50;93.10;;;;;;4954243;29;20038;-73
2021/01/19 00:45:19;;;;;;;138.93;73.45;;;-0.50;93.40;;;;;;4955191;29;20027;-74
2021/01/19 00:47:45;;;;;;;113.50;57.65;;;-0.50;93.40;;;;;;4954175;29;20039;-72
2021/01/19 00:50:12;;;;;;;96.30;51.50;;;-0.50;93.60;;;;;;4955693;29;20086;-73
2021/01/19 00:52:38;;;;;;;79.25;45.90;;;-0.40;93.40;;;;;;4953776;29;20035;-72
2021/01/19 00:55:15;;;;;;;75.10;41.88;;;-0.50;93.40;;;;;;4954127;29;20031;-72
2021/01/19 00:57:44;;;;;;;77.13;43.75;;;-0.40;93.60;;;;;;4955475;29;20042;-73
2021/01/19 01:00:10;;;;;;;70.95;37.78;;;-0.40;93.60;;;;;;4953768;29;20467;-73
2021/01/19 01:02:36;;;;;;;69.45;37.15;;;-0.40;93.60;;;;;;4954055;29;20030;-73
2021/01/19 01:05:04;;;;;;;63.30;35.75;;;-0.40;93.80;;;;;;4955346;29;20102;-72
2021/01/19 01:07:34;;;;;;;75.03;41.25;;;-0.40;94.00;;;;;;4953588;29;20039;-73
2021/01/19 01:10:00;;;;;;;85.75;46.42;;;-0.30;93.90;;;;;;4954983;29;20031;-73
2021/01/19 01:12:26;;;;;;;81.50;44.47;;;-0.40;93.20;;;;;;4955288;29;20440;-72
2021/01/19 01:14:52;;;;;;;70.20;39.60;;;-0.40;93.60;;;;;;4953835;29;20111;-72
2021/01/19 01:17:18;;;;;;;69.80;39.92;;;-0.30;93.80;;;;;;4953993;29;20042;-72
2021/01/19 01:19:43;;;;;;;72.88;40.13;;;-0.40;93.90;;;;;;4953697;29;20023;-73
2021/01/19 01:22:09;;;;;;;67.75;38.40;;;-0.40;94.00;;;;;;4953854;28;20138;-72
2021/01/19 01:24:35;;;;;;;67.72;37.30;;;-0.40;94.20;;;;;;4953739;28;20027;-72
2021/01/19 01:27:00;;;;;;;75.40;41.60;;;-0.40;94.00;;;;;;4957233;29;20039;-73
2021/01/19 01:29:26;;;;;;;100.10;50.33;;;-0.40;94.10;;;;;;4958331;29;20099;-73
2021/01/19 01:31:52;;;;;;;104.07;51.22;;;-0.40;94.30;;;;;;4958514;29;20030;-72
2021/01/19 01:34:18;;;;;;;95.70;48.83;;;-0.40;94.30;;;;;;4957952;29;20027;-72
2021/01/19 01:36:43;;;;;;;82.07;42.97;;;-0.40;94.20;;;;;;4957195;29;20028;-73
2021/01/19 01:39:09;;;;;;;73.22;40.45;;;-0.40;94.20;;;;;;4958491;29;20460;-73
2021/01/19 01:41:35;;;;;;;70.65;39.67;;;-0.40;94.30;;;;;;4957099;29;20472;-72
2021/01/19 01:44:01;;;;;;;64.03;37.20;;;-0.40;94.30;;;;;;4956783;29;20027;-72
2021/01/19 01:46:30;;;;;;;72.22;38.83;;;-0.40;94.40;;;;;;4957053;29;20098;-74
2021/01/19 01:48:57;;;;;;;77.68;39.35;;;-0.40;94.20;;;;;;4957991;29;20349;-74
2021/01/19 01:51:24;;;;;;;76.97;41.45;;;-0.40;94.30;;;;;;4957005;29;20468;-72
2021/01/19 01:53:53;;;;;;;234.23;87.20;;;-0.40;94.40;;;;;;4957420;29;20471;-75
2021/01/19 01:56:19;;;;;;;168.50;72.40;;;-0.40;94.10;;;;;;4956533;29;20028;-74
2021/01/19 01:58:45;;;;;;;160.13;74.22;;;-0.40;94.20;;;;;;4958401;29;20055;-72
2021/01/19 02:01:11;;;;;;;164.55;78.32;;;-0.50;94.50;;;;;;4957004;29;20081;-73
2021/01/19 02:03:37;;;;;;;120.82;61.40;;;-0.40;94.90;;;;;;4956507;29;20392;-71
2021/01/19 02:06:02;;;;;;;86.38;46.80;;;-0.40;94.60;;;;;;4956925;29;20034;-73
2021/01/19 02:08:54;;;;;;;83.45;43.25;;;-0.40;94.10;;;;;;4957557;29;20046;-71
2021/01/19 02:11:53;;;;;;;83.05;43.67;;;-0.40;94.20;;;;;;4956614;29;20027;-71
2021/01/19 02:14:33;;;;;;;109.05;57.45;;;-0.40;94.40;;;;;;4940543;29;20037;-71
2021/01/19 02:17:13;;;;;;;119.57;60.35;;;-0.50;94.30;;;;;;4956203;29;20031;-73
2021/01/19 02:20:00;;;;;;;116.95;58.60;;;-0.50;94.50;;;;;;4957719;29;20102;-73
2021/01/19 02:23:00;;;;;;;108.10;55.63;;;-0.50;94.40;;;;;;4958022;28;20052;-74
2021/01/19 02:25:56;;;;;;;119.72;63.53;;;-0.50;94.40;;;;;;4957252;29;20473;-71
2021/01/19 02:29:03;;;;;;;113.80;58.58;;;-0.50;94.40;;;;;;4957243;29;20073;-72
2021/01/19 02:31:51;;;;;;;110.25;57.55;;;-0.60;95.00;;;;;;4923208;29;20035;-73
2021/01/19 02:34:42;;;;;;;95.75;49.35;;;-0.60;95.30;;;;;;4957754;29;20027;-73
2021/01/19 02:37:12;;;;;;;97.07;51.90;;;-0.70;94.80;;;;;;4956078;28;20035;-72
2021/01/19 02:40:04;;;;;;;82.75;44.65;;;-0.60;94.70;;;;;;4956039;29;20035;-72
2021/01/19 02:42:54;;;;;;;75.97;41.78;;;-0.70;94.60;;;;;;4957424;29;20047;-72
2021/01/19 02:45:20;;;;;;;79.57;42.55;;;-0.70;94.70;;;;;;4956604;29;20028;-72
2021/01/19 02:47:46;;;;;;;71.85;41.08;;;-0.70;94.90;;;;;;4955807;29;20035;-72
2021/01/19 02:50:12;;;;;;;75.45;41.90;;;-0.70;94.70;;;;;;4955865;29;20554;-73
2021/01/19 02:52:39;;;;;;;80.15;43.42;;;-0.70;95.10;;;;;;4956627;29;20032;-72
2021/01/19 02:55:06;;;;;;;78.78;44.10;;;-0.70;95.20;;;;;;4956864;29;20089;-73
2021/01/19 02:57:50;;;;;;;79.57;43.13;;;-0.70;95.30;;;;;;4956946;29;20035;-73
2021/01/19 03:00:24;;;;;;;85.60;43.80;;;-0.80;95.40;;;;;;4956706;29;20081;-74
2021/01/19 03:02:52;;;;;;;77.43;43.85;;;-0.70;95.40;;;;;;4957028;29;20122;-73
2021/01/19 03:05:20;;;;;;;120.28;57.75;;;-0.80;95.50;;;;;;4956689;29;20035;-73
2021/01/19 03:07:48;;;;;;;88.25;48.30;;;-0.70;95.60;;;;;;4956716;29;20039;-72
2021/01/19 03:10:17;;;;;;;81.88;45.30;;;-0.60;95.50;;;;;;4955507;29;20035;-73
2021/01/19 03:12:46;;;;;;;83.53;46.53;;;-0.60;95.20;;;;;;4955134;29;20031;-72
2021/01/19 03:15:14;;;;;;;76.07;41.92;;;-0.50;95.40;;;;;;4955383;29;20034;-72
2021/01/19 03:17:41;;;;;;;76.13;43.70;;;-0.50;95.20;;;;;;4956317;29;20476;-72
2021/01/19 03:20:08;;;;;;;79.40;43.95;;;-0.60;95.50;;;;;;4956241;29;20026;-74
2021/01/19 03:22:33;;;;;;;82.25;44.03;;;-0.60;95.50;;;;;;4957009;29;20051;-73
2021/01/19 03:24:59;;;;;;;76.70;42.72;;;-0.60;95.70;;;;;;4956778;29;20035;-73
2021/01/19 03:27:25;;;;;;;75.00;40.78;;;-0.60;95.20;;;;;;4954837;29;20043;-73
2021/01/19 03:29:51;;;;;;;80.43;45.60;;;-0.60;95.10;;;;;;4955141;29;20471;-72
2021/01/19 03:32:16;;;;;;;82.55;45.88;;;-0.60;95.30;;;;;;4955099;29;20033;-73
2021/01/19 03:34:42;;;;;;;78.10;44.80;;;-0.60;95.70;;;;;;4956074;29;20528;-72
2021/01/19 03:37:08;;;;;;;76.93;43.45;;;-0.50;95.50;;;;;;4955865;29;20042;-72
2021/01/19 03:39:34;;;;;;;74.05;40.60;;;-0.50;95.40;;;;;;4955449;29;20023;-72
2021/01/19 03:41:59;;;;;;;77.85;43.15;;;-0.50;95.20;;;;;;4955871;29;20032;-73
2021/01/19 03:44:25;;;;;;;78.30;42.72;;;-0.50;95.20;;;;;;4954929;29;20027;-73
2021/01/19 03:46:51;;;;;;;68.47;41.30;;;-0.50;95.10;;;;;;4954509;29;20467;-73
2021/01/19 03:49:16;;;;;;;70.47;40.95;;;-0.50;95.20;;;;;;4954693;28;20023;-72
2021/01/19 03:51:42;;;;;;;67.93;40.08;;;-0.50;95.20;;;;;;4956323;29;20027;-73
2021/01/19 03:54:08;;;;;;;66.80;39.13;;;-0.50;95.40;;;;;;4955732;29;20027;-73
2021/01/19 03:56:34;;;;;;;58.75;36.35;;;-0.50;95.10;;;;;;4954432;29;20024;-72
2021/01/19 03:59:00;;;;;;;69.60;38.03;;;-0.50;95.20;;;;;;4955653;29;20024;-72
2021/01/19 04:01:25;;;;;;;63.58;33.58;;;-0.50;95.40;;;;;;4955873;29;20349;-72
2021/01/19 04:03:51;;;;;;;58.30;31.05;;;-0.60;95.20;;;;;;4954882;29;20030;-73
2021/01/19 04:06:17;;;;;;;46.67;25.88;;;-0.60;95.00;;;;;;4954355;29;20101;-73
2021/01/19 04:08:42;;;;;;;47.65;26.42;;;-0.50;94.90;;;;;;4954621;29;20040;-73
2021/01/19 04:11:09;;;;;;;42.85;24.15;;;-0.50;95.00;;;;;;4955863;29;20035;-73
2021/01/19 04:13:35;;;;;;;37.75;22.20;;;-0.50;94.80;;;;;;4955737;29;20090;-73
2021/01/19 04:16:01;;;;;;;87.70;46.55;;;-0.50;94.90;;;;;;4954211;29;20027;-72
2021/01/19 04:18:27;;;;;;;82.97;44.50;;;-0.50;95.30;;;;;;4954479;29;20035;-73
2021/01/19 04:20:53;;;;;;;101.22;55.50;;;-0.50;95.00;;;;;;4954090;28;20357;-72
2021/01/19 04:23:18;;;;;;;143.55;64.68;;;-0.50;95.00;;;;;;4955413;29;20479;-72
2021/01/19 04:25:46;;;;;;;125.88;59.13;;;-0.50;94.90;;;;;;4955660;29;20032;-72
2021/01/19 04:28:12;;;;;;;144.40;67.25;;;-0.50;95.20;;;;;;4954326;29;20394;-72
2021/01/19 04:30:39;;;;;;;84.60;45.92;;;-0.50;95.20;;;;;;4955326;29;20061;-73
2021/01/19 04:33:05;;;;;;;66.53;38.60;;;-0.50;95.40;;;;;;4955408;29;20032;-72
2021/01/19 04:35:31;;;;;;;65.60;37.67;;;-0.60;95.30;;;;;;4954075;29;20059;-73
2021/01/19 04:37:57;;;;;;;70.90;39.95;;;-0.70;95.50;;;;;;4955555;29;20484;-72
2021/01/19 04:40:23;;;;;;;73.50;41.53;;;-0.60;95.60;;;;;;4955626;29;20027;-72
2021/01/19 04:42:48;;;;;;;75.53;43.28;;;-0.60;95.50;;;;;;4953984;29;20035;-72
2021/01/19 04:45:14;;;;;;;80.80;45.95;;;-0.60;95.50;;;;;;4954511;29;20039;-72
2021/01/19 04:47:40;;;;;;;74.75;41.97;;;-0.60;95.50;;;;;;4955373;29;20035;-72
2021/01/19 04:50:13;;;;;;;78.03;42.42;;;-0.60;95.10;;;;;;4955684;29;20376;-72
2021/01/19 04:52:41;;;;;;;86.60;46.55;;;-0.70;95.30;;;;;;4954544;29;20085;-72
2021/01/19 04:55:15;;;;;;;81.93;45.67;;;-0.70;95.30;;;;;;4954225;29;20126;-73
2021/01/19 04:57:42;;;;;;;89.25;46.95;;;-0.80;95.60;;;;;;4953861;29;20031;-73
2021/01/19 05:00:13;;;;;;;83.07;45.85;;;-0.70;95.70;;;;;;4955937;28;20364;-72
2021/01/19 05:03:30;;;;;;;96.10;51.40;;;-0.80;95.50;;;;;;4957836;29;20031;-74
2021/01/19 05:05:59;;;;;;;114.82;59.13;;;-0.70;95.60;;;;;;4959118;29;20075;-73
2021/01/19 05:08:27;;;;;;;111.13;59.30;;;-0.70;95.70;;;;;;4957631;29;20039;-72
2021/01/19 05:10:58;;;;;;;100.53;52.97;;;-0.60;96.20;;;;;;4957641;29;20042;-73
2021/01/19 05:13:59;;;;;;;99.55;52.25;;;-0.60;96.10;;;;;;4958915;29;20035;-72
2021/01/19 05:16:26;;;;;;;106.53;55.22;;;-0.70;96.30;;;;;;4957592;29;20030;-72
2021/01/19 05:18:53;;;;;;;111.97;58.28;;;-0.60;96.00;;;;;;4958222;29;20442;-74
2021/01/19 05:21:19;;;;;;;107.97;56.38;;;-0.60;95.80;;;;;;4958704;28;20051;-72
2021/01/19 05:23:45;;;;;;;143.43;73.05;;;-0.50;95.70;;;;;;4958420;29;20039;-72
2021/01/19 05:26:14;;;;;;;141.32;73.63;;;-0.50;96.00;;;;;;4957090;29;20027;-73
2021/01/19 05:28:49;;;;;;;91.68;51.42;;;-0.50;95.70;;;;;;4958647;29;20440;-72
2021/01/19 05:31:15;;;;;;;81.50;47.45;;;-0.50;95.90;;;;;;4957917;29;20074;-71
2021/01/19 05:33:53;;;;;;;124.43;65.03;;;-0.50;95.70;;;;;;4957010;29;20464;-73
2021/01/19 05:36:43;;;;;;;102.38;53.55;;;-0.40;95.50;;;;;;4958279;29;20464;-72
2021/01/19 05:39:15;;;;;;;81.78;46.22;;;-0.40;95.60;;;;;;4958331;29;20042;-72
2021/01/19 05:41:43;;;;;;;75.75;42.88;;;-0.50;96.00;;;;;;4957188;29;20082;-72
2021/01/19 05:44:21;;;;;;;114.30;59.35;;;-0.40;96.10;;;;;;4957062;29;20066;-72
2021/01/19 05:46:59;;;;;;;116.80;65.72;;;-0.40;95.90;;;;;;4957072;29;20431;-73
2021/01/19 05:49:47;;;;;;;101.97;59.15;;;-0.40;96.00;;;;;;4956971;29;20043;-72
2021/01/19 05:52:15;;;;;;;105.32;60.10;;;-0.40;96.10;;;;;;4940966;29;20030;-72
2021/01/19 05:54:42;;;;;;;74.75;44.30;;;-0.40;95.90;;;;;;4957847;29;20034;-72
2021/01/19 05:57:22;;;;;;;77.57;49.95;;;-0.40;95.90;;;;;;4957061;29;20042;-73
2021/01/19 05:59:52;;;;;;;209.65;96.05;;;-0.40;95.70;;;;;;4956788;29;20066;-72
2021/01/19 06:02:21;;;;;;;115.35;57.78;;;-0.30;95.50;;;;;;4956822;29;20055;-71
2021/01/19 06:04:52;;;;;;;61.65;39.50;;;-0.30;95.80;;;;;;4957950;29;20023;-72
2021/01/19 06:07:23;;;;;;;55.47;34.17;;;-0.30;95.60;;;;;;4956282;29;20490;-72
2021/01/19 06:09:49;;;;;;;58.10;37.10;;;-0.30;95.50;;;;;;4956575;29;20039;-72
2021/01/19 06:12:17;;;;;;;94.60;51.47;;;-0.40;96.00;;;;;;4958159;28;20024;-72
2021/01/19 06:14:48;;;;;;;72.15;42.08;;;-0.40;95.80;;;;;;4957749;29;20031;-72
2021/01/19 06:17:21;;;;;;;84.72;45.50;;;-0.40;95.70;;;;;;4957940;29;20031;-73
2021/01/19 06:19:52;;;;;;;58.47;34.23;;;-0.40;95.90;;;;;;4957817;29;20412;-72
2021/01/19 06:22:21;;;;;;;58.38;33.70;;;-0.30;96.10;;;;;;4956081;29;20285;-72
2021/01/19 06:24:48;;;;;;;94.78;54.72;;;-0.30;95.50;;;;;;4957719;29;20419;-71
2021/01/19 06:27:20;;;;;;;139.10;73.22;;;-0.40;95.80;;;;;;4956244;29;20039;-72
2021/01/19 06:29:47;;;;;;;129.90;68.15;;;-0.40;95.80;;;;;;4955978;29;20159;-72
2021/01/19 06:32:16;;;;;;;197.27;104.20;;;-0.40;95.80;;;;;;4956192;29;20475;-72
2021/01/19 06:34:42;;;;;;;201.10;105.63;;;-0.40;95.80;;;;;;4955896;29;20034;-72
2021/01/19 06:37:09;;;;;;;237.32;125.40;;;-0.40;96.10;;;;;;4957385;29;20499;-71
2021/01/19 06:39:42;;;;;;;224.60;118.05;;;-0.30;95.90;;;;;;4957328;29;20452;-72
2021/01/19 06:42:13;;;;;;;200.20;109.22;;;-0.30;95.80;;;;;;4956999;29;20411;-71
2021/01/19 06:44:45;;;;;;;212.43;112.18;;;-0.20;95.60;;;;;;4956545;29;20371;-73
2021/01/19 06:47:13;;;;;;;178.98;98.95;;;-0.20;96.10;;;;;;4956102;29;20372;-72
2021/01/19 06:49:40;;;;;;;193.48;105.05;;;-0.10;95.60;;;;;;4956112;29;20030;-72
2021/01/19 06:52:11;;;;;;;318.73;170.20;;;-0.10;95.60;;;;;;4956933;29;20023;-73
2021/01/19 06:55:02;;;;;;;250.35;133.02;;;0.00;95.70;;;;;;4957141;29;20031;-72
2021/01/19 06:57:37;;;;;;;249.07;130.10;;;-0.10;95.70;;;;;;4957102;29;20428;-73
2021/01/19 07:00:23;;;;;;;;;;;-0.10;95.60;;;;;;4957417;29;20456;-71
2021/01/19 07:02:51;;;;;;;249.55;111.18;;;-0.10;95.70;;;;;;4956632;29;19910;-71
2021/01/19 07:05:19;;;;;;;219.18;114.47;;;0.00;96.40;;;;;;4957232;29;20094;-70
2021/01/19 07:07:54;;;;;;;240.68;123.53;;;0.00;96.10;;;;;;4956706;29;20035;-72
2021/01/19 07:10:32;;;;;;;;;;;0.10;95.60;;;;;;4956754;29;20031;-71
2021/01/19 07:13:01;;;;;;;229.55;118.30;;;0.00;95.40;;;;;;4955701;29;20394;-72
2021/01/19 07:15:55;;;;;;;234.75;126.80;;;0.00;95.20;;;;;;4956403;29;20024;-72
2021/01/19 07:18:43;;;;;;;200.43;107.20;;;-0.10;95.40;;;;;;4955105;29;20038;-73
2021/01/19 07:21:13;;;;;;;200.63;103.38;;;-0.10;95.10;;;;;;4955100;29;20285;-73
2021/01/19 07:23:45;;;;;;;180.60;97.07;;;0.00;95.10;;;;;;4955962;28;20474;-73
2021/01/19 07:26:23;;;;;;;168.10;90.68;;;0.00;95.00;;;;;;4955282;29;20027;-72
2021/01/19 07:28:51;;;;;;;144.13;86.28;;;-0.10;95.10;;;;;;4955157;29;20039;-71
2021/01/19 07:31:20;;;;;;;131.70;74.38;;;-0.10;95.30;;;;;;4954880;29;20032;-71
2021/01/19 07:33:54;;;;;;;120.05;69.97;;;0.00;95.00;;;;;;4956552;29;20027;-72
2021/01/19 07:36:24;;;;;;;130.25;75.88;;;0.00;94.90;;;;;;4955446;29;20035;-73
2021/01/19 07:38:50;;;;;;;130.07;78.60;;;0.00;95.10;;;;;;4955672;29;20098;-72
2021/01/19 07:41:29;;;;;;;120.60;68.97;;;-0.10;95.10;;;;;;4955059;29;20483;-72
2021/01/19 07:43:56;;;;;;;155.60;93.18;;;-0.10;95.00;;;;;;4956543;29;20510;-72
2021/01/19 07:46:29;;;;;;;162.27;94.57;;;0.00;95.10;;;;;;4954621;29;20030;-73
2021/01/19 07:49:02;;;;;;;182.57;107.60;;;0.00;95.30;;;;;;4956067;29;20031;-72
2021/01/19 07:51:44;;;;;;;203.02;119.88;;;0.00;95.30;;;;;;4954626;29;20023;-73
2021/01/19 07:54:11;;;;;;;229.65;131.55;;;0.00;95.30;;;;;;4955388;29;20094;-73
2021/01/19 07:56:38;;;;;;;225.00;129.35;;;0.10;95.20;;;;;;4954762;29;20078;-72
2021/01/19 07:59:13;;;;;;;206.38;120.18;;;0.20;94.90;;;;;;4954451;29;20036;-72
2021/01/19 08:01:39;;;;;;;196.90;115.68;;;0.40;95.10;;;;;;4955933;29;20027;-72
2021/01/19 08:04:13;;;;;;;199.68;112.10;;;0.40;94.50;;;;;;4954604;29;20428;-72
2021/01/19 08:06:40;;;;;;;184.45;104.32;;;0.50;94.30;;;;;;4955641;29;20023;-73
2021/01/19 08:09:16;;;;;;;171.10;100.25;;;0.60;94.10;;;;;;4954552;29;20043;-72
2021/01/19 08:11:43;;;;;;;159.77;93.07;;;0.60;94.10;;;;;;4954651;29;20506;-73
2021/01/19 08:14:10;;;;;;;151.98;87.18;;;0.70;93.80;;;;;;4954218;29;20031;-72
2021/01/19 08:16:37;;;;;;;156.15;91.93;;;0.80;93.60;;;;;;4954488;29;20036;-72
2021/01/19 08:19:14;;;;;;;167.20;98.90;;;0.80;93.50;;;;;;4955994;29;20463;-73
2021/01/19 08:21:53;;;;;;;143.98;87.90;;;1.00;93.70;;;;;;4953927;29;20125;-72
2021/01/19 08:24:24;;;;;;;136.93;85.20;;;1.10;93.30;;;;;;4955420;29;20042;-74
2021/01/19 08:26:51;;;;;;;139.15;86.70;;;1.20;92.30;;;;;;4953772;29;20039;-73
2021/01/19 08:29:21;;;;;;;211.98;117.85;;;1.40;91.80;;;;;;4955632;29;20102;-72
2021/01/19 08:31:54;;;;;;;225.23;130.48;;;1.60;91.60;;;;;;4949904;29;20031;-72
2021/01/19 08:34:21;;;;;;;123.53;70.78;;;1.80;91.70;;;;;;4942417;28;20111;-73
2021/01/19 08:36:48;;;;;;;184.82;107.70;;;1.90;91.10;;;;;;4952430;29;20031;-73
2021/01/19 08:39:16;;;;;;;139.90;85.93;;;2.20;91.90;;;;;;4921796;29;20031;-73
2021/01/19 08:41:43;;;;;;;111.22;70.13;;;2.30;90.30;;;;;;4947458;29;20103;-72
2021/01/19 08:44:10;;;;;;;107.15;63.05;;;2.50;90.20;;;;;;4938760;29;20110;-73
2021/01/19 08:46:37;;;;;;;111.72;66.50;;;2.40;89.00;;;;;;4945746;29;20019;-73
2021/01/19 08:49:14;;;;;;;122.25;73.15;;;2.50;90.00;;;;;;4939143;29;20432;-72
2021/01/19 08:51:47;;;;;;;118.22;71.53;;;2.70;90.10;;;;;;4929890;29;20024;-73
2021/01/19 08:54:13;;;;;;;240.63;128.40;;;3.00;91.70;;;;;;4921573;29;20551;-73
2021/01/19 08:56:44;;;;;;;146.75;88.70;;;3.30;87.90;;;;;;4943079;29;20024;-72
2021/01/19 08:59:14;;;;;;;157.15;94.03;;;4.20;91.30;;;;;;4947748;29;20094;-73
2021/01/19 09:01:53;;;;;;;208.50;126.18;;;5.10;90.00;;;;;;4947269;29;20407;-72
2021/01/19 09:04:29;;;;;;;169.65;104.00;;;5.20;85.60;;;;;;4957745;29;20038;-73
2021/01/19 09:07:10;;;;;;;122.65;73.90;;;4.90;80.10;;;;;;4957850;29;20528;-73
2021/01/19 09:09:35;;;;;;;125.63;79.65;;;4.60;80.00;;;;;;4958694;29;20031;-74
2021/01/19 09:12:02;;;;;;;146.70;92.18;;;4.40;82.30;;;;;;4939844;29;20558;-73
2021/01/19 09:14:28;;;;;;;139.73;87.82;;;4.40;82.60;;;;;;4922506;29;20473;-74
2021/01/19 09:16:55;;;;;;;175.45;107.35;;;4.50;83.40;;;;;;4939234;29;20027;-72
2021/01/19 09:19:21;;;;;;;174.00;105.75;;;4.60;82.90;;;;;;4939245;29;20023;-73
2021/01/19 09:21:47;;;;;;;164.52;100.80;;;4.80;79.80;;;;;;4922163;29;20143;-73
2021/01/19 09:24:22;;;;;;;159.13;98.55;;;4.90;86.00;;;;;;4937921;29;20028;-72
2021/01/19 09:27:00;;;;;;;199.70;125.63;;;5.00;76.20;;;;;;4939532;29;20028;-71
2021/01/19 09:29:30;;;;;;;156.20;101.03;;;4.90;81.00;;;;;;4938886;29;20528;-73
2021/01/19 09:32:03;;;;;;;166.10;108.40;;;4.80;80.70;;;;;;4922313;29;20038;-72
2021/01/19 09:34:30;;;;;;;186.10;117.07;;;4.70;80.50;;;;;;4939312;29;20027;-72
2021/01/19 09:36:57;;;;;;;206.48;124.57;;;4.80;83.90;;;;;;4938738;29;20413;-72
2021/01/19 09:39:31;;;;;;;197.43;121.70;;;5.20;81.10;;;;;;4939279;29;20027;-71
2021/01/19 09:41:58;;;;;;;;;;;5.20;80.30;;;;;;4940085;29;20115;-72
2021/01/19 09:44:25;;;;;;;162.07;98.72;;;5.40;83.20;;;;;;4938899;29;19907;-71
2021/01/19 09:46:54;;;;;;;169.20;98.85;;;5.50;77.60;;;;;;4938745;29;20083;-72
2021/01/19 09:49:24;;;;;;;131.07;80.00;;;5.90;78.60;;;;;;4922534;29;20376;-72
2021/01/19 09:51:50;;;;;;;112.82;72.22;;;6.20;87.20;;;;;;4938008;29;20032;-73
2021/01/19 09:54:23;;;;;;;95.93;55.05;;;6.90;79.10;;;;;;4937253;29;20052;-72
2021/01/19 09:56:56;;;;;;;105.78;61.45;;;6.90;72.20;;;;;;4937948;29;20035;-72
2021/01/19 09:59:25;;;;;;;85.28;49.90;;;7.00;86.10;;;;;;4938529;29;20031;-72
2021/01/19 10:01:51;;;;;;;92.10;54.28;;;7.60;66.30;;;;;;4921676;29;20064;-72
2021/01/19 10:04:18;;;;;;;83.68;49.47;;;7.10;70.00;;;;;;4921718;29;20034;-72
2021/01/19 10:06:45;;;;;;;129.65;74.72;;;8.00;72.00;;;;;;4938339;29;20035;-74
2021/01/19 10:09:21;;;;;;;120.50;70.15;;;7.30;67.80;;;;;;4938645;29;20031;-73
2021/01/19 10:11:56;;;;;;;106.88;62.45;;;7.10;69.70;;;;;;4921428;29;20035;-73
2021/01/19 10:14:30;;;;;;;98.30;58.35;;;7.50;81.40;;;;;;4938463;29;20032;-73
2021/01/19 10:16:56;;;;;;;96.57;58.08;;;8.10;72.10;;;;;;4937381;29;20031;-72
2021/01/19 10:19:26;;;;;;;123.72;74.35;;;9.10;78.00;;;;;;4938218;29;20039;-72
2021/01/19 10:22:03;;;;;;;100.80;61.17;;;9.80;71.10;;;;;;4938780;29;20080;-73
2021/01/19 10:24:28;;;;;;;104.47;60.60;;;9.50;72.30;;;;;;4937148;29;20054;-72
2021/01/19 10:27:05;;;;;;;115.70;66.32;;;9.80;58.50;;;;;;4937348;29;20468;-72
2021/01/19 10:29:44;;;;;;;112.53;65.78;;;10.60;68.90;;;;;;4937363;29;20095;-73
2021/01/19 10:32:14;;;;;;;95.22;56.45;;;9.90;71.00;;;;;;4937976;29;20031;-74
2021/01/19 10:34:47;;;;;;;95.15;55.78;;;9.80;63.30;;;;;;4937731;29;20028;-72
2021/01/19 10:37:14;;;;;;;85.95;51.40;;;10.20;74.20;;;;;;4936944;29;20027;-72
2021/01/19 10:39:47;;;;;;;69.75;43.25;;;9.90;62.60;;;;;;4936856;29;20087;-73
2021/01/19 10:42:26;;;;;;;90.38;61.10;;;9.80;57.30;;;;;;4936864;29;20090;-73
2021/01/19 10:44:57;;;;;;;97.82;60.28;;;9.40;67.90;;;;;;4936859;29;20032;-72
2021/01/19 10:47:24;;;;;;;88.60;58.22;;;9.40;61.80;;;;;;4937299;29;20071;-71
2021/01/19 10:49:49;;;;;;;84.53;53.78;;;9.50;70.40;;;;;;4936678;29;20032;-72
2021/01/19 10:52:15;;;;;;;69.75;43.25;;;10.30;68.50;;;;;;4936305;29;20034;-72
2021/01/19 10:54:41;;;;;;;85.88;52.88;;;10.70;56.40;;;;;;4936554;29;20038;-71
2021/01/19 10:57:08;;;;;;;81.57;52.28;;;11.00;60.30;;;;;;4935841;29;20389;-72
2021/01/19 10:59:34;;;;;;;77.97;48.88;;;10.30;60.90;;;;;;4936185;29;20034;-72
2021/01/19 11:02:00;;;;;;;81.18;54.58;;;10.60;64.60;;;;;;4936012;29;20046;-72
2021/01/19 11:04:26;;;;;;;78.47;48.90;;;10.80;63.30;;;;;;4936044;29;20024;-72
2021/01/19 11:06:52;;;;;;;81.82;53.20;;;11.40;59.80;;;;;;4937190;29;20491;-71
2021/01/19 11:09:18;;;;;;;77.30;48.92;;;10.80;60.50;;;;;;4936063;29;20040;-72
2021/01/19 11:11:45;;;;;;;76.55;50.17;;;10.60;56.40;;;;;;4936311;29;20032;-72
2021/01/19 11:14:10;;;;;;;83.95;55.05;;;11.00;72.40;;;;;;4937243;29;20079;-71
2021/01/19 11:16:39;;;;;;;81.70;51.85;;;11.00;56.50;;;;;;4937224;29;20110;-72
2021/01/19 11:19:13;;;;;;;68.00;45.25;;;11.60;64.40;;;;;;4938193;29;20035;-72
2021/01/19 11:21:42;;;;;;;74.80;47.15;;;10.60;54.30;;;;;;4937250;29;20047;-72
2021/01/19 11:24:09;;;;;;;68.25;44.85;;;10.40;63.40;;;;;;4919509;29;20031;-71
2021/01/19 11:26:37;;;;;;;60.60;39.90;;;11.70;62.50;;;;;;4931178;29;20032;-72
2021/01/19 11:29:04;;;;;;;63.85;41.72;;;11.20;58.20;;;;;;4935891;29;20418;-71
2021/01/19 11:31:31;;;;;;;64.70;43.00;;;10.30;56.10;;;;;;4920060;29;20028;-71
2021/01/19 11:34:01;;;;;;;47.30;32.83;;;10.60;58.70;;;;;;4920056;29;20028;-71
2021/01/19 11:36:33;;;;;;;46.72;30.10;;;11.10;63.90;;;;;;4936617;29;20024;-71
2021/01/19 11:39:01;;;;;;;43.90;27.60;;;11.00;55.30;;;;;;4936836;29;20039;-71
2021/01/19 11:41:28;;;;;;;44.20;29.27;;;10.60;55.90;;;;;;4919930;29;20024;-71
2021/01/19 11:43:54;;;;;;;39.80;26.75;;;10.90;61.50;;;;;;4936736;29;20034;-71
2021/01/19 11:46:24;;;;;;;29.85;19.73;;;10.30;58.30;;;;;;4920033;29;20027;-71
2021/01/19 11:48:51;;;;;;;38.42;25.10;;;10.10;57.10;;;;;;4936760;29;20047;-71
2021/01/19 11:51:22;;;;;;;44.88;28.10;;;10.10;59.20;;;;;;4936778;29;20043;-71
2021/01/19 11:53:53;;;;;;;53.72;34.65;;;10.10;56.60;;;;;;4936881;29;20024;-72
2021/01/19 11:56:19;;;;;;;53.72;32.70;;;9.90;57.90;;;;;;4936574;29;20107;-72
2021/01/19 11:58:46;;;;;;;52.60;37.55;;;10.40;57.60;;;;;;4919128;29;20032;-72
2021/01/19 12:01:19;;;;;;;46.95;31.38;;;10.20;57.30;;;;;;4936241;29;20375;-71
2021/01/19 12:03:45;;;;;;;50.50;31.25;;;10.30;59.20;;;;;;4924141;29;20024;-72
2021/01/19 12:06:11;;;;;;;43.65;29.90;;;10.60;58.30;;;;;;4916823;29;20464;-72
2021/01/19 12:08:37;;;;;;;46.47;29.95;;;10.90;57.60;;;;;;4936360;29;20032;-72
2021/01/19 12:11:06;;;;;;;40.20;25.10;;;10.40;55.00;;;;;;4935585;29;20111;-72
2021/01/19 12:13:32;;;;;;;48.22;29.20;;;9.70;55.10;;;;;;4936869;29;20039;-72
2021/01/19 12:15:57;;;;;;;65.50;41.72;;;9.40;57.70;;;;;;4936564;29;20193;-71
2021/01/19 12:18:23;;;;;;;45.50;30.25;;;9.00;59.70;;;;;;4936042;29;20043;-71
2021/01/19 12:20:49;;;;;;;39.92;26.60;;;9.10;60.50;;;;;;4937166;28;20479;-70
2021/01/19 12:23:15;;;;;;;45.92;31.45;;;9.10;60.00;;;;;;4956332;29;20033;-72
2021/01/19 12:25:40;;;;;;;44.45;27.20;;;9.10;60.60;;;;;;4954189;29;20174;-71
2021/01/19 12:28:06;;;;;;;49.90;33.50;;;9.10;59.10;;;;;;4954312;29;20043;-71
2021/01/19 12:30:32;;;;;;;48.05;33.55;;;9.20;60.00;;;;;;4954458;29;20028;-71
2021/01/19 12:32:57;;;;;;;67.57;49.15;;;9.20;60.80;;;;;;4954088;29;20032;-74
2021/01/19 12:35:23;;;;;;;46.15;30.65;;;8.90;59.20;;;;;;4955563;29;20037;-70
2021/01/19 12:37:55;;;;;;;38.85;24.25;;;8.90;61.40;;;;;;4954587;29;20046;-71
2021/01/19 12:40:21;;;;;;;47.85;33.25;;;8.80;60.20;;;;;;4954158;29;20426;-72